sensor_id;sensor_type;location;lat;lon;timestamp;P1;durP1;ratioP1;P2;durP2;ratioP2
83284;SDS011;73191;50.074;8.488;2024-01-16T00:01:32;5.13;;;2.50;;
83284;SDS011;73191;50.074;8.488;2024-01-16T00:04:02;7.15;;;2.58;;
83284;SDS011;73191;50.074;8.488;2024-01-16T00:06:30;4.10;;;2.33;;
83284;SDS011;73191;50.074;8.488;2024-01-16T00:08:57;4.47;;;2.28;;
83284;SDS011;73191;50.074;8.488;2024-01-16T00:11:26;9.98;;;2.55;;
83284;SDS011;73191;50.074;8.488;2024-01-16T00:13:54;8.80;;;2.40;;
83284;SDS011;73191;50.074;8.488;2024-01-16T00:16:21;4.05;;;2.13;;
83284;SDS011;73191;50.074;8.488;2024-01-16T00:18:49;7.72;;;2.72;;
83284;SDS011;73191;50.074;8.488;2024-01-16T00:21:18;4.35;;;2.38;;
83284;SDS011;73191;50.074;8.488;2024-01-16T00:23:46;4.97;;;2.22;;
83284;SDS011;73191;50.074;8.488;2024-01-16T00:26:19;4.40;;;2.30;;
83284;SDS011;73191;50.074;8.488;2024-01-16T00:28:47;5.38;;;2.22;;
83284;SDS011;73191;50.074;8.488;2024-01-16T00:31:15;7.00;;;2.47;;
83284;SDS011;73191;50.074;8.488;2024-01-16T00:33:42;5.57;;;2.13;;
83284;SDS011;73191;50.074;8.488;2024-01-16T00:36:10;7.78;;;2.95;;
83284;SDS011;73191;50.074;8.488;2024-01-16T00:38:39;4.50;;;2.55;;
83284;SDS011;73191;50.074;8.488;2024-01-16T00:41:07;6.70;;;2.80;;
83284;SDS011;73191;50.074;8.488;2024-01-16T00:43:35;4.35;;;2.67;;
83284;SDS011;73191;50.074;8.488;2024-01-16T00:46:03;5.32;;;2.53;;
83284;SDS011;73191;50.074;8.488;2024-01-16T00:48:31;6.90;;;2.60;;
83284;SDS011;73191;50.074;8.488;2024-01-16T00:50:58;5.38;;;2.20;;
83284;SDS011;73191;50.074;8.488;2024-01-16T00:53:26;5.80;;;2.22;;
83284;SDS011;73191;50.074;8.488;2024-01-16T00:55:55;8.50;;;2.60;;
83284;SDS011;73191;50.074;8.488;2024-01-16T00:58:23;5.72;;;2.60;;
83284;SDS011;73191;50.074;8.488;2024-01-16T01:00:51;5.57;;;2.60;;
83284;SDS011;73191;50.074;8.488;2024-01-16T01:03:18;4.85;;;2.40;;
83284;SDS011;73191;50.074;8.488;2024-01-16T01:05:46;5.45;;;2.38;;
83284;SDS011;73191;50.074;8.488;2024-01-16T01:08:14;6.75;;;2.75;;
83284;SDS011;73191;50.074;8.488;2024-01-16T01:10:41;8.50;;;2.45;;
83284;SDS011;73191;50.074;8.488;2024-01-16T01:13:11;5.53;;;2.67;;
83284;SDS011;73191;50.074;8.488;2024-01-16T01:15:38;3.58;;;2.47;;
83284;SDS011;73191;50.074;8.488;2024-01-16T01:18:06;3.22;;;2.55;;
83284;SDS011;73191;50.074;8.488;2024-01-16T01:20:34;5.53;;;2.25;;
83284;SDS011;73191;50.074;8.488;2024-01-16T01:23:02;6.22;;;2.53;;
83284;SDS011;73191;50.074;8.488;2024-01-16T01:25:29;8.05;;;2.70;;
83284;SDS011;73191;50.074;8.488;2024-01-16T01:27:57;4.95;;;2.90;;
83284;SDS011;73191;50.074;8.488;2024-01-16T01:30:26;8.07;;;3.25;;
83284;SDS011;73191;50.074;8.488;2024-01-16T01:32:54;4.40;;;2.65;;
83284;SDS011;73191;50.074;8.488;2024-01-16T01:35:22;6.30;;;3.05;;
83284;SDS011;73191;50.074;8.488;2024-01-16T01:37:49;5.97;;;2.75;;
83284;SDS011;73191;50.074;8.488;2024-01-16T01:40:17;4.57;;;3.00;;
83284;SDS011;73191;50.074;8.488;2024-01-16T01:42:45;4.32;;;2.75;;
83284;SDS011;73191;50.074;8.488;2024-01-16T01:45:12;8.27;;;3.10;;
83284;SDS011;73191;50.074;8.488;2024-01-16T01:47:41;9.57;;;2.90;;
83284;SDS011;73191;50.074;8.488;2024-01-16T01:50:09;5.63;;;2.95;;
83284;SDS011;73191;50.074;8.488;2024-01-16T01:52:38;5.90;;;2.60;;
83284;SDS011;73191;50.074;8.488;2024-01-16T01:55:07;7.90;;;3.05;;
83284;SDS011;73191;50.074;8.488;2024-01-16T01:57:36;7.53;;;2.85;;
83284;SDS011;73191;50.074;8.488;2024-01-16T02:00:04;9.27;;;2.55;;
83284;SDS011;73191;50.074;8.488;2024-01-16T02:02:39;6.82;;;2.75;;
83284;SDS011;73191;50.074;8.488;2024-01-16T02:05:09;7.20;;;2.70;;
83284;SDS011;73191;50.074;8.488;2024-01-16T02:07:37;8.68;;;2.90;;
83284;SDS011;73191;50.074;8.488;2024-01-16T02:10:05;8.75;;;3.33;;
83284;SDS011;73191;50.074;8.488;2024-01-16T02:12:33;5.22;;;3.00;;
83284;SDS011;73191;50.074;8.488;2024-01-16T02:15:01;6.88;;;3.58;;
83284;SDS011;73191;50.074;8.488;2024-01-16T02:17:29;12.18;;;3.53;;
83284;SDS011;73191;50.074;8.488;2024-01-16T02:19:57;6.38;;;3.38;;
83284;SDS011;73191;50.074;8.488;2024-01-16T02:22:26;6.22;;;3.05;;
83284;SDS011;73191;50.074;8.488;2024-01-16T02:24:56;7.47;;;2.92;;
83284;SDS011;73191;50.074;8.488;2024-01-16T02:27:24;8.55;;;3.42;;
83284;SDS011;73191;50.074;8.488;2024-01-16T02:29:52;7.97;;;3.25;;
83284;SDS011;73191;50.074;8.488;2024-01-16T02:32:20;8.65;;;3.10;;
83284;SDS011;73191;50.074;8.488;2024-01-16T02:34:47;7.38;;;2.85;;
83284;SDS011;73191;50.074;8.488;2024-01-16T02:37:16;7.38;;;3.38;;
83284;SDS011;73191;50.074;8.488;2024-01-16T02:39:44;9.43;;;3.63;;
83284;SDS011;73191;50.074;8.488;2024-01-16T02:42:13;5.30;;;3.08;;
83284;SDS011;73191;50.074;8.488;2024-01-16T02:44:41;6.68;;;2.88;;
83284;SDS011;73191;50.074;8.488;2024-01-16T02:47:08;6.13;;;2.97;;
83284;SDS011;73191;50.074;8.488;2024-01-16T02:49:36;6.78;;;3.50;;
83284;SDS011;73191;50.074;8.488;2024-01-16T02:52:06;7.80;;;3.45;;
83284;SDS011;73191;50.074;8.488;2024-01-16T02:54:34;7.80;;;3.17;;
83284;SDS011;73191;50.074;8.488;2024-01-16T02:57:01;7.38;;;2.90;;
83284;SDS011;73191;50.074;8.488;2024-01-16T02:59:30;6.70;;;3.22;;
83284;SDS011;73191;50.074;8.488;2024-01-16T03:01:58;6.70;;;3.42;;
83284;SDS011;73191;50.074;8.488;2024-01-16T03:04:28;6.47;;;3.35;;
83284;SDS011;73191;50.074;8.488;2024-01-16T03:06:55;6.07;;;3.35;;
83284;SDS011;73191;50.074;8.488;2024-01-16T03:09:23;8.73;;;3.10;;
83284;SDS011;73191;50.074;8.488;2024-01-16T03:11:51;9.95;;;3.00;;
83284;SDS011;73191;50.074;8.488;2024-01-16T03:14:19;6.40;;;3.22;;
83284;SDS011;73191;50.074;8.488;2024-01-16T03:16:48;6.68;;;2.95;;
83284;SDS011;73191;50.074;8.488;2024-01-16T03:19:15;8.50;;;3.15;;
83284;SDS011;73191;50.074;8.488;2024-01-16T03:21:44;9.60;;;2.97;;
83284;SDS011;73191;50.074;8.488;2024-01-16T03:24:11;8.13;;;3.30;;
83284;SDS011;73191;50.074;8.488;2024-01-16T03:26:39;6.82;;;3.33;;
83284;SDS011;73191;50.074;8.488;2024-01-16T03:29:09;5.50;;;3.35;;
83284;SDS011;73191;50.074;8.488;2024-01-16T03:31:37;5.70;;;3.50;;
83284;SDS011;73191;50.074;8.488;2024-01-16T03:34:06;8.70;;;3.00;;
83284;SDS011;73191;50.074;8.488;2024-01-16T03:36:36;8.32;;;3.65;;
83284;SDS011;73191;50.074;8.488;2024-01-16T03:39:04;8.52;;;2.95;;
83284;SDS011;73191;50.074;8.488;2024-01-16T03:41:32;5.95;;;2.78;;
83284;SDS011;73191;50.074;8.488;2024-01-16T03:43:59;8.77;;;3.08;;
83284;SDS011;73191;50.074;8.488;2024-01-16T03:46:27;6.78;;;2.95;;
83284;SDS011;73191;50.074;8.488;2024-01-16T03:48:55;8.20;;;3.80;;
83284;SDS011;73191;50.074;8.488;2024-01-16T03:51:24;7.78;;;2.95;;
83284;SDS011;73191;50.074;8.488;2024-01-16T03:53:52;6.95;;;3.03;;
83284;SDS011;73191;50.074;8.488;2024-01-16T03:56:20;7.25;;;2.95;;
83284;SDS011;73191;50.074;8.488;2024-01-16T03:58:48;5.10;;;2.92;;
83284;SDS011;73191;50.074;8.488;2024-01-16T04:01:15;7.05;;;2.92;;
83284;SDS011;73191;50.074;8.488;2024-01-16T04:03:43;5.63;;;2.95;;
83284;SDS011;73191;50.074;8.488;2024-01-16T04:06:15;5.90;;;3.33;;
83284;SDS011;73191;50.074;8.488;2024-01-16T04:08:44;6.05;;;2.78;;
83284;SDS011;73191;50.074;8.488;2024-01-16T04:11:12;4.72;;;2.85;;
83284;SDS011;73191;50.074;8.488;2024-01-16T04:13:41;6.05;;;2.95;;
83284;SDS011;73191;50.074;8.488;2024-01-16T04:16:09;8.73;;;3.40;;
83284;SDS011;73191;50.074;8.488;2024-01-16T04:18:40;10.82;;;2.92;;
83284;SDS011;73191;50.074;8.488;2024-01-16T04:21:09;8.68;;;2.92;;
83284;SDS011;73191;50.074;8.488;2024-01-16T04:23:37;8.27;;;3.20;;
83284;SDS011;73191;50.074;8.488;2024-01-16T04:26:06;6.38;;;3.10;;
83284;SDS011;73191;50.074;8.488;2024-01-16T04:28:34;9.57;;;3.40;;
83284;SDS011;73191;50.074;8.488;2024-01-16T04:31:03;9.35;;;3.38;;
83284;SDS011;73191;50.074;8.488;2024-01-16T04:33:31;6.78;;;3.40;;
83284;SDS011;73191;50.074;8.488;2024-01-16T04:35:59;8.02;;;3.22;;
83284;SDS011;73191;50.074;8.488;2024-01-16T04:38:27;5.88;;;3.22;;
83284;SDS011;73191;50.074;8.488;2024-01-16T04:40:54;4.43;;;2.63;;
83284;SDS011;73191;50.074;8.488;2024-01-16T04:43:24;9.25;;;3.17;;
83284;SDS011;73191;50.074;8.488;2024-01-16T04:45:51;7.32;;;2.80;;
83284;SDS011;73191;50.074;8.488;2024-01-16T04:48:19;5.68;;;3.10;;
83284;SDS011;73191;50.074;8.488;2024-01-16T04:50:46;6.53;;;3.10;;
83284;SDS011;73191;50.074;8.488;2024-01-16T04:53:14;7.78;;;3.78;;
83284;SDS011;73191;50.074;8.488;2024-01-16T04:55:42;6.32;;;3.15;;
83284;SDS011;73191;50.074;8.488;2024-01-16T04:58:10;7.97;;;3.15;;
83284;SDS011;73191;50.074;8.488;2024-01-16T05:00:39;8.30;;;3.78;;
83284;SDS011;73191;50.074;8.488;2024-01-16T05:03:07;6.88;;;3.25;;
83284;SDS011;73191;50.074;8.488;2024-01-16T05:05:34;6.80;;;3.30;;
83284;SDS011;73191;50.074;8.488;2024-01-16T05:08:02;8.55;;;3.50;;
83284;SDS011;73191;50.074;8.488;2024-01-16T05:10:30;8.90;;;3.50;;
83284;SDS011;73191;50.074;8.488;2024-01-16T05:12:58;8.00;;;3.53;;
83284;SDS011;73191;50.074;8.488;2024-01-16T05:15:26;6.68;;;3.40;;
83284;SDS011;73191;50.074;8.488;2024-01-16T05:17:55;9.57;;;3.17;;
83284;SDS011;73191;50.074;8.488;2024-01-16T05:20:23;8.10;;;3.42;;
83284;SDS011;73191;50.074;8.488;2024-01-16T05:22:51;9.75;;;4.18;;
83284;SDS011;73191;50.074;8.488;2024-01-16T05:25:19;6.90;;;3.25;;
83284;SDS011;73191;50.074;8.488;2024-01-16T05:27:48;9.98;;;3.35;;
83284;SDS011;73191;50.074;8.488;2024-01-16T05:30:16;6.95;;;3.30;;
83284;SDS011;73191;50.074;8.488;2024-01-16T05:32:44;9.13;;;3.42;;
83284;SDS011;73191;50.074;8.488;2024-01-16T05:35:13;8.15;;;3.30;;
83284;SDS011;73191;50.074;8.488;2024-01-16T05:37:41;7.20;;;3.13;;
83284;SDS011;73191;50.074;8.488;2024-01-16T05:40:09;8.35;;;3.83;;
83284;SDS011;73191;50.074;8.488;2024-01-16T05:42:37;8.65;;;4.13;;
83284;SDS011;73191;50.074;8.488;2024-01-16T05:45:05;8.57;;;3.70;;
83284;SDS011;73191;50.074;8.488;2024-01-16T05:47:33;9.90;;;3.42;;
83284;SDS011;73191;50.074;8.488;2024-01-16T05:50:02;10.07;;;3.60;;
83284;SDS011;73191;50.074;8.488;2024-01-16T05:52:32;6.95;;;3.30;;
83284;SDS011;73191;50.074;8.488;2024-01-16T05:55:00;7.97;;;3.20;;
83284;SDS011;73191;50.074;8.488;2024-01-16T05:57:29;7.03;;;3.05;;
83284;SDS011;73191;50.074;8.488;2024-01-16T05:59:59;6.05;;;3.00;;
83284;SDS011;73191;50.074;8.488;2024-01-16T06:02:30;5.32;;;3.10;;
83284;SDS011;73191;50.074;8.488;2024-01-16T06:04:58;8.88;;;3.60;;
83284;SDS011;73191;50.074;8.488;2024-01-16T06:07:27;9.25;;;3.67;;
83284;SDS011;73191;50.074;8.488;2024-01-16T06:09:56;9.45;;;3.58;;
83284;SDS011;73191;50.074;8.488;2024-01-16T06:12:23;7.25;;;3.47;;
83284;SDS011;73191;50.074;8.488;2024-01-16T06:14:51;6.88;;;3.47;;
83284;SDS011;73191;50.074;8.488;2024-01-16T06:17:19;5.53;;;3.15;;
83284;SDS011;73191;50.074;8.488;2024-01-16T06:19:46;8.45;;;3.20;;
83284;SDS011;73191;50.074;8.488;2024-01-16T06:22:14;8.27;;;3.13;;
83284;SDS011;73191;50.074;8.488;2024-01-16T06:24:42;13.35;;;4.15;;
83284;SDS011;73191;50.074;8.488;2024-01-16T06:27:11;9.38;;;3.92;;
83284;SDS011;73191;50.074;8.488;2024-01-16T06:29:45;7.35;;;3.30;;
83284;SDS011;73191;50.074;8.488;2024-01-16T06:32:13;8.75;;;3.78;;
83284;SDS011;73191;50.074;8.488;2024-01-16T06:34:41;10.43;;;3.83;;
83284;SDS011;73191;50.074;8.488;2024-01-16T06:37:08;7.78;;;3.25;;
83284;SDS011;73191;50.074;8.488;2024-01-16T06:39:36;9.27;;;3.60;;
83284;SDS011;73191;50.074;8.488;2024-01-16T06:42:05;6.55;;;3.40;;
83284;SDS011;73191;50.074;8.488;2024-01-16T06:44:38;8.07;;;3.42;;
83284;SDS011;73191;50.074;8.488;2024-01-16T06:47:05;7.85;;;3.80;;
83284;SDS011;73191;50.074;8.488;2024-01-16T06:49:33;9.30;;;3.88;;
83284;SDS011;73191;50.074;8.488;2024-01-16T06:52:01;9.35;;;3.63;;
83284;SDS011;73191;50.074;8.488;2024-01-16T06:54:29;8.38;;;4.07;;
83284;SDS011;73191;50.074;8.488;2024-01-16T06:56:57;12.40;;;3.80;;
83284;SDS011;73191;50.074;8.488;2024-01-16T06:59:25;7.30;;;3.72;;
83284;SDS011;73191;50.074;8.488;2024-01-16T07:01:54;10.52;;;3.40;;
83284;SDS011;73191;50.074;8.488;2024-01-16T07:04:21;12.27;;;3.63;;
83284;SDS011;73191;50.074;8.488;2024-01-16T07:06:49;14.93;;;4.18;;
83284;SDS011;73191;50.074;8.488;2024-01-16T07:09:17;8.85;;;3.33;;
83284;SDS011;73191;50.074;8.488;2024-01-16T07:11:47;7.80;;;3.53;;
83284;SDS011;73191;50.074;8.488;2024-01-16T07:14:15;8.95;;;3.83;;
83284;SDS011;73191;50.074;8.488;2024-01-16T07:16:42;9.20;;;4.32;;
83284;SDS011;73191;50.074;8.488;2024-01-16T07:19:11;10.32;;;4.22;;
83284;SDS011;73191;50.074;8.488;2024-01-16T07:21:39;7.72;;;3.83;;
83284;SDS011;73191;50.074;8.488;2024-01-16T07:24:07;8.38;;;4.38;;
83284;SDS011;73191;50.074;8.488;2024-01-16T07:26:35;12.05;;;4.05;;
83284;SDS011;73191;50.074;8.488;2024-01-16T07:29:02;8.75;;;4.40;;
83284;SDS011;73191;50.074;8.488;2024-01-16T07:31:30;10.60;;;4.60;;
83284;SDS011;73191;50.074;8.488;2024-01-16T07:33:58;9.23;;;4.25;;
83284;SDS011;73191;50.074;8.488;2024-01-16T07:36:27;9.60;;;4.22;;
83284;SDS011;73191;50.074;8.488;2024-01-16T07:38:55;10.48;;;4.53;;
83284;SDS011;73191;50.074;8.488;2024-01-16T07:41:22;8.00;;;4.57;;
83284;SDS011;73191;50.074;8.488;2024-01-16T07:43:50;10.90;;;4.55;;
83284;SDS011;73191;50.074;8.488;2024-01-16T07:46:17;10.82;;;4.72;;
83284;SDS011;73191;50.074;8.488;2024-01-16T07:48:45;10.70;;;5.03;;
83284;SDS011;73191;50.074;8.488;2024-01-16T07:51:13;8.50;;;4.43;;
83284;SDS011;73191;50.074;8.488;2024-01-16T07:53:42;12.07;;;4.32;;
83284;SDS011;73191;50.074;8.488;2024-01-16T07:56:10;9.88;;;4.40;;
83284;SDS011;73191;50.074;8.488;2024-01-16T07:58:37;8.15;;;4.45;;
83284;SDS011;73191;50.074;8.488;2024-01-16T08:01:05;9.20;;;3.88;;
83284;SDS011;73191;50.074;8.488;2024-01-16T08:03:34;8.80;;;4.03;;
83284;SDS011;73191;50.074;8.488;2024-01-16T08:06:01;9.73;;;4.45;;
83284;SDS011;73191;50.074;8.488;2024-01-16T08:08:29;8.10;;;3.80;;
83284;SDS011;73191;50.074;8.488;2024-01-16T08:11:02;7.15;;;4.30;;
83284;SDS011;73191;50.074;8.488;2024-01-16T08:13:29;8.43;;;4.22;;
83284;SDS011;73191;50.074;8.488;2024-01-16T08:15:57;11.10;;;5.05;;
83284;SDS011;73191;50.074;8.488;2024-01-16T08:18:25;12.02;;;4.47;;
83284;SDS011;73191;50.074;8.488;2024-01-16T08:20:53;8.85;;;3.92;;
83284;SDS011;73191;50.074;8.488;2024-01-16T08:23:21;8.25;;;4.18;;
83284;SDS011;73191;50.074;8.488;2024-01-16T08:25:49;8.02;;;4.35;;
83284;SDS011;73191;50.074;8.488;2024-01-16T08:28:19;10.00;;;4.43;;
83284;SDS011;73191;50.074;8.488;2024-01-16T08:30:49;10.27;;;4.90;;
83284;SDS011;73191;50.074;8.488;2024-01-16T08:33:17;8.93;;;4.90;;
83284;SDS011;73191;50.074;8.488;2024-01-16T08:35:56;10.00;;;4.82;;
83284;SDS011;73191;50.074;8.488;2024-01-16T08:38:24;11.45;;;4.72;;
83284;SDS011;73191;50.074;8.488;2024-01-16T08:40:51;8.90;;;4.70;;
83284;SDS011;73191;50.074;8.488;2024-01-16T08:43:21;12.75;;;4.75;;
83284;SDS011;73191;50.074;8.488;2024-01-16T08:45:48;12.05;;;4.47;;
83284;SDS011;73191;50.074;8.488;2024-01-16T08:48:16;13.55;;;5.50;;
83284;SDS011;73191;50.074;8.488;2024-01-16T08:50:44;10.18;;;4.55;;
83284;SDS011;73191;50.074;8.488;2024-01-16T08:53:12;10.43;;;4.93;;
83284;SDS011;73191;50.074;8.488;2024-01-16T08:55:40;9.70;;;5.80;;
83284;SDS011;73191;50.074;8.488;2024-01-16T08:58:08;10.85;;;4.93;;
83284;SDS011;73191;50.074;8.488;2024-01-16T09:00:37;14.15;;;4.82;;
83284;SDS011;73191;50.074;8.488;2024-01-16T09:03:05;10.88;;;5.10;;
83284;SDS011;73191;50.074;8.488;2024-01-16T09:05:34;9.35;;;5.20;;
83284;SDS011;73191;50.074;8.488;2024-01-16T09:08:05;10.98;;;4.68;;
83284;SDS011;73191;50.074;8.488;2024-01-16T09:10:37;11.77;;;4.95;;
83284;SDS011;73191;50.074;8.488;2024-01-16T09:13:05;8.50;;;4.60;;
83284;SDS011;73191;50.074;8.488;2024-01-16T09:15:32;10.63;;;4.72;;
83284;SDS011;73191;50.074;8.488;2024-01-16T09:18:02;9.88;;;4.78;;
83284;SDS011;73191;50.074;8.488;2024-01-16T09:20:30;9.65;;;4.63;;
83284;SDS011;73191;50.074;8.488;2024-01-16T09:22:58;13.18;;;6.00;;
83284;SDS011;73191;50.074;8.488;2024-01-16T09:25:25;10.77;;;4.68;;
83284;SDS011;73191;50.074;8.488;2024-01-16T09:27:56;12.15;;;5.40;;
83284;SDS011;73191;50.074;8.488;2024-01-16T09:30:23;12.43;;;5.05;;
83284;SDS011;73191;50.074;8.488;2024-01-16T09:32:51;10.55;;;5.32;;
83284;SDS011;73191;50.074;8.488;2024-01-16T09:35:20;10.43;;;5.00;;
83284;SDS011;73191;50.074;8.488;2024-01-16T09:37:48;10.98;;;5.50;;
83284;SDS011;73191;50.074;8.488;2024-01-16T09:40:17;10.55;;;5.45;;
83284;SDS011;73191;50.074;8.488;2024-01-16T09:42:45;9.38;;;5.20;;
83284;SDS011;73191;50.074;8.488;2024-01-16T09:45:12;11.75;;;5.57;;
83284;SDS011;73191;50.074;8.488;2024-01-16T09:47:46;8.90;;;4.25;;
83284;SDS011;73191;50.074;8.488;2024-01-16T09:50:17;11.55;;;4.82;;
83284;SDS011;73191;50.074;8.488;2024-01-16T09:52:47;9.75;;;4.97;;
83284;SDS011;73191;50.074;8.488;2024-01-16T09:55:15;11.77;;;5.10;;
83284;SDS011;73191;50.074;8.488;2024-01-16T09:57:45;11.70;;;5.40;;
83284;SDS011;73191;50.074;8.488;2024-01-16T10:00:13;11.25;;;5.53;;
83284;SDS011;73191;50.074;8.488;2024-01-16T10:02:41;8.93;;;5.13;;
83284;SDS011;73191;50.074;8.488;2024-01-16T10:05:10;13.90;;;4.93;;
83284;SDS011;73191;50.074;8.488;2024-01-16T10:07:38;12.73;;;5.55;;
83284;SDS011;73191;50.074;8.488;2024-01-16T10:10:08;9.43;;;5.13;;
83284;SDS011;73191;50.074;8.488;2024-01-16T10:12:37;11.70;;;5.00;;
83284;SDS011;73191;50.074;8.488;2024-01-16T10:15:06;10.25;;;5.15;;
83284;SDS011;73191;50.074;8.488;2024-01-16T10:17:35;9.10;;;4.72;;
83284;SDS011;73191;50.074;8.488;2024-01-16T10:20:04;10.73;;;4.43;;
83284;SDS011;73191;50.074;8.488;2024-01-16T10:22:33;7.50;;;4.80;;
83284;SDS011;73191;50.074;8.488;2024-01-16T10:25:04;10.45;;;4.93;;
83284;SDS011;73191;50.074;8.488;2024-01-16T10:27:33;12.65;;;4.90;;
83284;SDS011;73191;50.074;8.488;2024-01-16T10:30:01;8.55;;;4.70;;
83284;SDS011;73191;50.074;8.488;2024-01-16T10:32:31;10.80;;;4.97;;
83284;SDS011;73191;50.074;8.488;2024-01-16T10:35:04;8.75;;;5.10;;
83284;SDS011;73191;50.074;8.488;2024-01-16T10:37:40;10.38;;;5.68;;
83284;SDS011;73191;50.074;8.488;2024-01-16T10:40:09;10.88;;;5.18;;
83284;SDS011;73191;50.074;8.488;2024-01-16T10:42:38;8.05;;;4.20;;
83284;SDS011;73191;50.074;8.488;2024-01-16T10:45:06;9.80;;;4.90;;
83284;SDS011;73191;50.074;8.488;2024-01-16T10:47:34;15.02;;;5.45;;
83284;SDS011;73191;50.074;8.488;2024-01-16T10:50:04;11.43;;;5.10;;
83284;SDS011;73191;50.074;8.488;2024-01-16T10:52:35;11.52;;;4.88;;
83284;SDS011;73191;50.074;8.488;2024-01-16T10:55:10;12.45;;;5.05;;
83284;SDS011;73191;50.074;8.488;2024-01-16T10:57:39;10.07;;;4.55;;
83284;SDS011;73191;50.074;8.488;2024-01-16T11:00:08;10.20;;;5.05;;
83284;SDS011;73191;50.074;8.488;2024-01-16T11:02:38;11.57;;;4.88;;
83284;SDS011;73191;50.074;8.488;2024-01-16T11:05:11;13.05;;;5.78;;
83284;SDS011;73191;50.074;8.488;2024-01-16T11:07:40;13.85;;;4.47;;
83284;SDS011;73191;50.074;8.488;2024-01-16T11:10:08;11.57;;;5.05;;
83284;SDS011;73191;50.074;8.488;2024-01-16T11:12:37;11.77;;;5.07;;
83284;SDS011;73191;50.074;8.488;2024-01-16T11:15:07;9.32;;;5.03;;
83284;SDS011;73191;50.074;8.488;2024-01-16T11:17:36;14.48;;;5.47;;
83284;SDS011;73191;50.074;8.488;2024-01-16T11:20:07;10.40;;;5.35;;
83284;SDS011;73191;50.074;8.488;2024-01-16T11:22:57;10.57;;;4.68;;
83284;SDS011;73191;50.074;8.488;2024-01-16T11:25:30;12.70;;;5.50;;
83284;SDS011;73191;50.074;8.488;2024-01-16T11:28:08;11.95;;;4.90;;
83284;SDS011;73191;50.074;8.488;2024-01-16T11:30:37;12.73;;;5.45;;
83284;SDS011;73191;50.074;8.488;2024-01-16T11:33:05;9.70;;;4.82;;
83284;SDS011;73191;50.074;8.488;2024-01-16T11:35:33;12.40;;;5.30;;
83284;SDS011;73191;50.074;8.488;2024-01-16T11:38:03;12.77;;;5.60;;
83284;SDS011;73191;50.074;8.488;2024-01-16T11:40:32;11.40;;;4.35;;
83284;SDS011;73191;50.074;8.488;2024-01-16T11:46:04;8.95;;;5.10;;
83284;SDS011;73191;50.074;8.488;2024-01-16T11:48:32;10.25;;;5.70;;
83284;SDS011;73191;50.074;8.488;2024-01-16T11:51:00;12.25;;;5.88;;
83284;SDS011;73191;50.074;8.488;2024-01-16T11:53:52;13.32;;;5.70;;
83284;SDS011;73191;50.074;8.488;2024-01-16T11:56:25;10.05;;;4.78;;
83284;SDS011;73191;50.074;8.488;2024-01-16T11:59:54;9.00;;;4.55;;
83284;SDS011;73191;50.074;8.488;2024-01-16T12:02:27;10.75;;;5.35;;
83284;SDS011;73191;50.074;8.488;2024-01-16T12:04:57;8.85;;;4.88;;
83284;SDS011;73191;50.074;8.488;2024-01-16T12:07:31;9.55;;;4.47;;
83284;SDS011;73191;50.074;8.488;2024-01-16T12:10:11;11.93;;;5.72;;
83284;SDS011;73191;50.074;8.488;2024-01-16T12:12:38;11.15;;;4.70;;
83284;SDS011;73191;50.074;8.488;2024-01-16T12:15:06;9.13;;;4.03;;
83284;SDS011;73191;50.074;8.488;2024-01-16T12:17:36;12.02;;;4.70;;
83284;SDS011;73191;50.074;8.488;2024-01-16T12:20:15;7.13;;;3.92;;
83284;SDS011;73191;50.074;8.488;2024-01-16T12:22:45;8.07;;;3.72;;
83284;SDS011;73191;50.074;8.488;2024-01-16T12:25:12;10.73;;;4.00;;
83284;SDS011;73191;50.074;8.488;2024-01-16T12:27:46;8.77;;;4.43;;
83284;SDS011;73191;50.074;8.488;2024-01-16T12:30:14;10.02;;;4.55;;
83284;SDS011;73191;50.074;8.488;2024-01-16T12:32:42;9.70;;;4.20;;
83284;SDS011;73191;50.074;8.488;2024-01-16T12:35:19;10.25;;;4.22;;
83284;SDS011;73191;50.074;8.488;2024-01-16T12:37:58;7.63;;;4.05;;
83284;SDS011;73191;50.074;8.488;2024-01-16T12:40:27;8.13;;;4.00;;
83284;SDS011;73191;50.074;8.488;2024-01-16T12:42:54;9.70;;;3.75;;
83284;SDS011;73191;50.074;8.488;2024-01-16T12:45:22;13.20;;;4.25;;
83284;SDS011;73191;50.074;8.488;2024-01-16T12:47:50;10.98;;;3.75;;
83284;SDS011;73191;50.074;8.488;2024-01-16T12:50:20;6.95;;;3.80;;
83284;SDS011;73191;50.074;8.488;2024-01-16T12:52:49;8.15;;;3.53;;
83284;SDS011;73191;50.074;8.488;2024-01-16T12:55:18;10.05;;;3.22;;
83284;SDS011;73191;50.074;8.488;2024-01-16T12:57:45;12.60;;;3.40;;
83284;SDS011;73191;50.074;8.488;2024-01-16T13:00:23;10.73;;;3.42;;
83284;SDS011;73191;50.074;8.488;2024-01-16T13:02:52;6.93;;;3.00;;
83284;SDS011;73191;50.074;8.488;2024-01-16T13:05:22;10.20;;;3.30;;
83284;SDS011;73191;50.074;8.488;2024-01-16T13:07:59;6.80;;;3.30;;
83284;SDS011;73191;50.074;8.488;2024-01-16T13:10:28;7.60;;;3.70;;
83284;SDS011;73191;50.074;8.488;2024-01-16T13:13:13;13.13;;;3.90;;
83284;SDS011;73191;50.074;8.488;2024-01-16T13:15:42;9.70;;;3.72;;
83284;SDS011;73191;50.074;8.488;2024-01-16T13:18:19;10.02;;;4.10;;
83284;SDS011;73191;50.074;8.488;2024-01-16T13:20:48;5.97;;;3.38;;
83284;SDS011;73191;50.074;8.488;2024-01-16T13:23:17;8.65;;;3.33;;
83284;SDS011;73191;50.074;8.488;2024-01-16T13:25:47;9.02;;;3.90;;
83284;SDS011;73191;50.074;8.488;2024-01-16T13:28:17;12.00;;;3.83;;
83284;SDS011;73191;50.074;8.488;2024-01-16T13:30:48;9.23;;;3.90;;
83284;SDS011;73191;50.074;8.488;2024-01-16T13:33:16;7.05;;;3.42;;
83284;SDS011;73191;50.074;8.488;2024-01-16T13:35:45;6.90;;;3.22;;
83284;SDS011;73191;50.074;8.488;2024-01-16T13:38:14;9.55;;;3.55;;
83284;SDS011;73191;50.074;8.488;2024-01-16T13:40:43;6.18;;;3.63;;
83284;SDS011;73191;50.074;8.488;2024-01-16T13:43:12;7.38;;;3.67;;
83284;SDS011;73191;50.074;8.488;2024-01-16T13:45:40;7.88;;;3.72;;
83284;SDS011;73191;50.074;8.488;2024-01-16T13:48:08;10.45;;;4.07;;
83284;SDS011;73191;50.074;8.488;2024-01-16T13:50:36;7.85;;;4.38;;
83284;SDS011;73191;50.074;8.488;2024-01-16T13:53:03;8.02;;;3.95;;
83284;SDS011;73191;50.074;8.488;2024-01-16T13:55:31;10.05;;;3.90;;
83284;SDS011;73191;50.074;8.488;2024-01-16T13:57:59;12.48;;;4.43;;
83284;SDS011;73191;50.074;8.488;2024-01-16T14:00:28;10.30;;;5.00;;
83284;SDS011;73191;50.074;8.488;2024-01-16T14:02:57;8.65;;;4.40;;
83284;SDS011;73191;50.074;8.488;2024-01-16T14:05:25;9.90;;;4.20;;
83284;SDS011;73191;50.074;8.488;2024-01-16T14:07:53;7.60;;;4.00;;
83284;SDS011;73191;50.074;8.488;2024-01-16T14:10:21;9.30;;;4.30;;
83284;SDS011;73191;50.074;8.488;2024-01-16T14:12:51;10.57;;;4.35;;
83284;SDS011;73191;50.074;8.488;2024-01-16T14:15:19;9.48;;;4.03;;
83284;SDS011;73191;50.074;8.488;2024-01-16T14:17:51;7.35;;;4.30;;
83284;SDS011;73191;50.074;8.488;2024-01-16T14:20:21;9.55;;;4.18;;
83284;SDS011;73191;50.074;8.488;2024-01-16T14:22:53;10.18;;;4.30;;
83284;SDS011;73191;50.074;8.488;2024-01-16T14:25:21;11.48;;;4.70;;
83284;SDS011;73191;50.074;8.488;2024-01-16T14:27:55;9.88;;;4.22;;
83284;SDS011;73191;50.074;8.488;2024-01-16T14:30:24;8.70;;;3.90;;
83284;SDS011;73191;50.074;8.488;2024-01-16T14:32:54;8.88;;;3.83;;
83284;SDS011;73191;50.074;8.488;2024-01-16T14:35:23;11.75;;;4.50;;
83284;SDS011;73191;50.074;8.488;2024-01-16T14:37:51;12.00;;;4.20;;
83284;SDS011;73191;50.074;8.488;2024-01-16T14:40:19;10.52;;;4.45;;
83284;SDS011;73191;50.074;8.488;2024-01-16T14:42:51;15.27;;;5.25;;
83284;SDS011;73191;50.074;8.488;2024-01-16T14:45:20;9.82;;;4.15;;
83284;SDS011;73191;50.074;8.488;2024-01-16T14:47:48;9.23;;;4.20;;
83284;SDS011;73191;50.074;8.488;2024-01-16T14:50:17;10.07;;;4.18;;
83284;SDS011;73191;50.074;8.488;2024-01-16T14:52:48;7.28;;;3.88;;
83284;SDS011;73191;50.074;8.488;2024-01-16T14:55:18;12.23;;;4.10;;
83284;SDS011;73191;50.074;8.488;2024-01-16T14:57:47;8.23;;;4.35;;